createdAt,value
2023-03-25T00:03:46.557Z,40.10
2023-03-25T00:08:51.162Z,40.10
2023-03-25T00:13:54.647Z,40.10
2023-03-25T00:19:00.034Z,40.10
2023-03-25T00:24:04.622Z,40.10
2023-03-25T00:29:08.177Z,40.20
2023-03-25T00:34:14.407Z,40.30
2023-03-25T00:39:18.617Z,40.20
2023-03-25T00:44:22.454Z,40.20
2023-03-25T00:49:25.476Z,40.20
2023-03-25T00:54:29.689Z,40.30
2023-03-25T00:59:32.598Z,40.20
2023-03-25T01:04:38.891Z,40.30
2023-03-25T01:09:46.588Z,40.20
2023-03-25T01:14:49.638Z,40.10
2023-03-25T01:19:52.606Z,40.20
2023-03-25T01:24:56.773Z,39.90
2023-03-25T01:29:59.590Z,40.10
2023-03-25T01:35:04.492Z,40.20
2023-03-25T01:40:10.438Z,40.10
2023-03-25T01:45:21.823Z,40.20
2023-03-25T01:50:29.088Z,40.20
2023-03-25T01:55:35.374Z,40.10
2023-03-25T02:00:39.324Z,40.10
2023-03-25T02:05:50.174Z,40.00
2023-03-25T02:10:54.903Z,40.00
2023-03-25T02:16:21.310Z,39.90
2023-03-25T02:21:53.100Z,39.80
2023-03-25T02:27:15.924Z,39.70
2023-03-25T02:32:35.108Z,39.70
2023-03-25T02:38:12.759Z,39.70
2023-03-25T02:43:20.296Z,39.60
2023-03-25T02:48:28.572Z,39.50
2023-03-25T02:53:36.490Z,39.40
2023-03-25T02:58:41.781Z,39.40
2023-03-25T03:03:44.625Z,39.30
2023-03-25T03:09:06.778Z,39.20
2023-03-25T03:14:32.611Z,39.10
2023-03-25T03:19:41.350Z,39.20
2023-03-25T03:24:51.435Z,39.20
2023-03-25T03:29:58.423Z,39.20
2023-03-25T03:35:05.250Z,39.20
2023-03-25T03:40:14.591Z,39.10
2023-03-25T03:45:22.654Z,39.10
2023-03-25T03:50:31.623Z,39.00
2023-03-25T03:55:41.858Z,39.10
2023-03-25T04:00:50.723Z,39.10
2023-03-25T04:05:58.789Z,39.10
2023-03-25T04:11:09.036Z,39.10
2023-03-25T04:16:12.474Z,39.10
2023-03-25T04:21:17.646Z,39.10
2023-03-25T04:26:21.895Z,39.10
2023-03-25T04:31:25.893Z,39.10
2023-03-25T04:36:29.739Z,39.20
2023-03-25T04:41:33.956Z,39.20
2023-03-25T04:46:38.404Z,39.20
2023-03-25T04:51:44.880Z,39.30
2023-03-25T04:56:51.086Z,39.20
2023-03-25T05:01:54.127Z,39.30
2023-03-25T05:06:57.532Z,39.30
2023-03-25T05:12:01.692Z,39.30
2023-03-25T05:17:04.560Z,39.20
2023-03-25T05:22:07.756Z,39.30
2023-03-25T05:27:11.922Z,39.20
2023-03-25T05:32:17.780Z,39.00
2023-03-25T05:37:21.287Z,38.90
2023-03-25T05:42:25.866Z,38.70
2023-03-25T05:47:29.076Z,38.70
2023-03-25T05:52:32.047Z,38.70
2023-03-25T05:57:36.361Z,38.70
2023-03-25T06:02:39.737Z,38.70
2023-03-25T06:07:43.710Z,38.70
2023-03-25T06:12:48.977Z,38.70
2023-03-25T06:17:51.824Z,38.70
2023-03-25T06:22:54.701Z,38.60
2023-03-25T06:28:03.092Z,38.70
2023-03-25T06:33:06.160Z,38.70
2023-03-25T06:38:09.858Z,38.60
2023-03-25T06:43:14.033Z,38.60
2023-03-25T06:48:16.858Z,38.80
2023-03-25T06:53:19.736Z,38.70
2023-03-25T06:58:24.038Z,38.60
2023-03-25T07:03:26.935Z,38.50
2023-03-25T07:08:29.893Z,38.50
2023-03-25T07:13:34.432Z,38.60
2023-03-25T07:18:37.264Z,38.60
2023-03-25T07:23:40.279Z,38.60
2023-03-25T07:28:44.593Z,38.60
2023-03-25T07:33:47.656Z,38.60
2023-03-25T07:38:50.646Z,38.60
2023-03-25T07:43:54.917Z,38.70
2023-03-25T07:48:57.775Z,38.60
2023-03-25T07:54:05.253Z,38.60
2023-03-25T07:59:10.622Z,38.60
2023-03-25T08:04:14.541Z,38.60
2023-03-25T08:09:17.416Z,38.60
2023-03-25T08:14:21.607Z,38.60
2023-03-25T08:19:24.461Z,38.60
2023-03-25T08:24:29.971Z,38.60
2023-03-25T08:29:34.630Z,39.00
2023-03-25T08:34:40.292Z,38.30
2023-03-25T08:39:45.022Z,38.20
2023-03-25T08:44:49.223Z,38.10
2023-03-25T08:49:52.105Z,38.10
2023-03-25T08:54:54.970Z,37.70
2023-03-25T08:59:59.257Z,35.50
2023-03-25T09:05:02.160Z,35.00
2023-03-25T09:10:06.019Z,35.90
2023-03-25T09:15:12.600Z,36.60
2023-03-25T09:20:18.579Z,36.70
2023-03-25T09:25:21.544Z,36.90
2023-03-25T09:30:25.726Z,37.00
2023-03-25T09:35:28.779Z,37.10
2023-03-25T09:40:32.594Z,37.30
2023-03-25T09:45:40.243Z,37.40
2023-03-25T09:50:45.324Z,38.10
2023-03-25T09:55:50.042Z,37.50
2023-03-25T10:00:59.259Z,37.40
2023-03-25T10:06:26.572Z,37.50
2023-03-25T10:11:37.905Z,37.60
2023-03-25T10:16:53.942Z,37.60
2023-03-25T10:22:04.628Z,37.60
2023-03-25T10:27:13.962Z,37.70
2023-03-25T10:32:24.698Z,37.70
2023-03-25T10:37:32.638Z,37.70
2023-03-25T10:42:40.858Z,37.70
2023-03-25T10:47:46.994Z,37.70
2023-03-25T10:52:52.528Z,37.60
2023-03-25T10:57:57.152Z,37.70
2023-03-25T11:03:02.100Z,37.70
2023-03-25T11:08:18.135Z,37.70
2023-03-25T11:13:25.753Z,37.80
2023-03-25T11:18:32.675Z,37.80
2023-03-25T11:23:37.288Z,37.80
2023-03-25T11:28:42.575Z,37.90
2023-03-25T11:33:48.612Z,37.90
2023-03-25T11:38:58.942Z,37.80
2023-03-25T11:44:03.042Z,37.90
2023-03-25T11:49:19.806Z,38.00
2023-03-25T11:54:23.042Z,37.90
2023-03-25T11:59:28.190Z,38.00
2023-03-25T12:04:32.486Z,37.90
2023-03-25T12:09:36.020Z,37.90
2023-03-25T12:14:49.387Z,37.80
2023-03-25T12:20:08.088Z,37.80
2023-03-25T12:25:21.348Z,37.80
2023-03-25T12:30:37.382Z,37.80
2023-03-25T12:35:47.278Z,37.80
2023-03-25T12:41:07.891Z,37.70
2023-03-25T12:46:25.323Z,37.70
2023-03-25T12:51:40.707Z,37.80
2023-03-25T12:56:53.507Z,38.10
2023-03-25T13:02:07.232Z,38.30
2023-03-25T13:07:16.950Z,38.60
2023-03-25T13:12:31.709Z,38.80
2023-03-25T13:17:40.463Z,39.00
2023-03-25T13:22:48.627Z,38.90
2023-03-25T13:27:53.219Z,39.10
2023-03-25T13:33:01.859Z,38.90
2023-03-25T13:38:14.143Z,39.00
2023-03-25T13:43:25.395Z,38.90
2023-03-25T13:48:32.877Z,39.00
2023-03-25T13:53:44.093Z,39.10
2023-03-25T13:58:59.760Z,39.30
2023-03-25T14:04:32.454Z,39.60
2023-03-25T14:09:55.555Z,39.70
2023-03-25T14:15:04.234Z,39.70
2023-03-25T14:20:12.453Z,39.60
2023-03-25T14:25:22.640Z,39.60
2023-03-25T14:30:28.048Z,39.70
2023-03-25T14:35:51.298Z,39.50
2023-03-25T14:41:03.511Z,39.90
2023-03-25T14:46:18.294Z,39.60
2023-03-25T14:51:42.911Z,39.60
2023-03-25T14:56:55.749Z,39.40
2023-03-25T15:02:05.335Z,39.30
2023-03-25T15:07:14.038Z,39.30
2023-03-25T15:12:22.535Z,39.40
2023-03-25T15:17:49.416Z,39.50
2023-03-25T15:23:30.243Z,39.60
2023-03-25T15:28:47.757Z,39.70
2023-03-25T15:34:06.585Z,39.80
2023-03-25T15:39:29.997Z,39.90
2023-03-25T15:44:58.873Z,40.00
2023-03-25T15:50:17.340Z,39.80
2023-03-25T15:55:23.777Z,39.80
2023-03-25T16:00:32.458Z,39.70
2023-03-25T16:05:39.534Z,39.80
2023-03-25T16:10:42.756Z,39.80
2023-03-25T16:15:47.050Z,39.80
2023-03-25T16:20:56.943Z,39.90
2023-03-25T16:25:59.804Z,39.90
2023-03-25T16:31:04.460Z,39.80
2023-03-25T16:36:11.620Z,39.90
2023-03-25T16:41:15.870Z,40.10
2023-03-25T16:46:23.540Z,40.10
2023-03-25T16:51:32.100Z,40.10
2023-03-25T16:56:38.722Z,40.10
2023-03-25T17:01:45.387Z,40.30
2023-03-25T17:06:52.823Z,40.40
2023-03-25T17:11:57.960Z,40.50
2023-03-25T17:17:08.977Z,40.50
2023-03-25T17:22:18.286Z,40.80
2023-03-25T17:27:33.704Z,40.80
2023-03-25T17:32:44.762Z,40.60
2023-03-25T17:37:50.342Z,40.60
2023-03-25T17:42:53.726Z,40.30
2023-03-25T17:47:57.965Z,40.10
2023-03-25T17:53:00.987Z,40.00
2023-03-25T17:58:04.041Z,39.90
2023-03-25T18:03:13.219Z,39.80
2023-03-25T18:08:16.320Z,39.70
2023-03-25T18:13:21.701Z,39.70
2023-03-25T18:18:27.392Z,39.70
2023-03-25T18:23:30.477Z,39.60
2023-03-25T18:28:34.456Z,39.60
2023-03-25T18:33:38.738Z,39.60
2023-03-25T18:38:41.992Z,39.70
2023-03-25T18:43:44.952Z,39.60
2023-03-25T18:48:49.152Z,39.50
2023-03-25T18:53:51.988Z,39.30
2023-03-25T18:58:54.832Z,39.20
2023-03-25T19:04:02.621Z,39.10
2023-03-25T19:09:05.741Z,39.00
2023-03-25T19:14:08.598Z,39.10
2023-03-25T19:19:13.804Z,39.00
2023-03-25T19:24:16.906Z,39.10
2023-03-25T19:29:19.762Z,39.10
2023-03-25T19:34:24.001Z,39.10
2023-03-25T19:39:26.820Z,39.10
2023-03-25T19:44:29.635Z,39.10
2023-03-25T19:49:39.706Z,39.00
2023-03-25T19:54:44.712Z,39.00
2023-03-25T19:59:48.178Z,39.00
2023-03-25T20:04:52.732Z,39.10
2023-03-25T20:09:55.620Z,39.00
2023-03-25T20:14:58.725Z,39.10
2023-03-25T20:20:06.396Z,39.10
2023-03-25T20:25:11.659Z,39.00
2023-03-25T20:30:16.772Z,38.80
2023-03-25T20:35:21.154Z,38.70
2023-03-25T20:40:33.816Z,38.60
2023-03-25T20:45:44.908Z,38.60
2023-03-25T20:50:49.440Z,38.60
2023-03-25T20:55:52.553Z,38.60
2023-03-25T21:00:58.855Z,38.50
2023-03-25T21:06:13.403Z,38.60
2023-03-25T21:11:25.751Z,38.60
2023-03-25T21:16:28.691Z,38.60
2023-03-25T21:21:33.420Z,38.60
2023-03-25T21:26:36.339Z,38.60
2023-03-25T21:31:39.249Z,38.50
2023-03-25T21:36:43.945Z,38.50
2023-03-25T21:41:46.834Z,38.50
2023-03-25T21:46:49.819Z,38.50
2023-03-25T21:51:58.243Z,38.50
2023-03-25T21:57:04.428Z,38.50
2023-03-25T22:02:08.639Z,38.50
2023-03-25T22:07:12.934Z,38.50
2023-03-25T22:12:15.823Z,38.50
2023-03-25T22:17:18.712Z,38.50
2023-03-25T22:22:23.112Z,38.50
2023-03-25T22:27:26.121Z,38.60
2023-03-25T22:32:29.122Z,38.60
2023-03-25T22:37:36.861Z,38.60
2023-03-25T22:42:39.820Z,38.60
2023-03-25T22:47:42.798Z,38.70
2023-03-25T22:52:46.996Z,38.70
2023-03-25T22:57:49.787Z,38.80
2023-03-25T23:02:52.716Z,38.70
2023-03-25T23:07:56.976Z,38.80
2023-03-25T23:13:00.160Z,38.80
2023-03-25T23:18:03.294Z,38.80
2023-03-25T23:23:07.471Z,38.80
2023-03-25T23:28:12.336Z,38.70
2023-03-25T23:33:15.469Z,38.70
2023-03-25T23:38:19.658Z,38.70
2023-03-25T23:43:22.472Z,38.70
2023-03-25T23:48:26.146Z,38.70
2023-03-25T23:53:33.327Z,38.60
2023-03-25T23:58:36.335Z,38.60
